sensor_id;sensor_type;location;lat;lon;timestamp;P1;durP1;ratioP1;P2;durP2;ratioP2
13485;SDS011;6815;59.336;17.998;2022-12-10T00:01:50;9.83;;;6.20;;
13485;SDS011;6815;59.336;17.998;2022-12-10T00:04:17;9.90;;;5.83;;
13485;SDS011;6815;59.336;17.998;2022-12-10T00:06:43;8.37;;;5.77;;
13485;SDS011;6815;59.336;17.998;2022-12-10T00:09:10;9.90;;;5.83;;
13485;SDS011;6815;59.336;17.998;2022-12-10T00:11:38;9.17;;;5.93;;
13485;SDS011;6815;59.336;17.998;2022-12-10T00:14:04;9.00;;;5.93;;
13485;SDS011;6815;59.336;17.998;2022-12-10T00:16:31;8.93;;;6.23;;
13485;SDS011;6815;59.336;17.998;2022-12-10T00:18:58;10.03;;;6.33;;
13485;SDS011;6815;59.336;17.998;2022-12-10T00:21:25;10.73;;;6.40;;
13485;SDS011;6815;59.336;17.998;2022-12-10T00:23:52;8.73;;;5.77;;
13485;SDS011;6815;59.336;17.998;2022-12-10T00:26:19;8.07;;;5.73;;
13485;SDS011;6815;59.336;17.998;2022-12-10T00:28:46;8.23;;;5.70;;
13485;SDS011;6815;59.336;17.998;2022-12-10T00:31:20;8.77;;;5.47;;
13485;SDS011;6815;59.336;17.998;2022-12-10T00:33:57;7.40;;;5.03;;
13485;SDS011;6815;59.336;17.998;2022-12-10T00:36:29;9.40;;;5.77;;
13485;SDS011;6815;59.336;17.998;2022-12-10T00:38:56;9.47;;;5.87;;
13485;SDS011;6815;59.336;17.998;2022-12-10T00:41:22;10.03;;;6.03;;
13485;SDS011;6815;59.336;17.998;2022-12-10T00:43:48;7.90;;;5.63;;
13485;SDS011;6815;59.336;17.998;2022-12-10T00:46:14;8.93;;;6.07;;
13485;SDS011;6815;59.336;17.998;2022-12-10T00:48:40;8.80;;;5.97;;
13485;SDS011;6815;59.336;17.998;2022-12-10T00:51:08;8.47;;;5.67;;
13485;SDS011;6815;59.336;17.998;2022-12-10T00:53:36;7.97;;;5.63;;
13485;SDS011;6815;59.336;17.998;2022-12-10T00:56:02;8.00;;;5.53;;
13485;SDS011;6815;59.336;17.998;2022-12-10T00:58:32;9.17;;;5.53;;
13485;SDS011;6815;59.336;17.998;2022-12-10T01:01:08;9.20;;;5.73;;
13485;SDS011;6815;59.336;17.998;2022-12-10T01:03:54;11.30;;;6.50;;
13485;SDS011;6815;59.336;17.998;2022-12-10T01:06:22;11.83;;;6.00;;
13485;SDS011;6815;59.336;17.998;2022-12-10T01:08:56;8.67;;;5.27;;
13485;SDS011;6815;59.336;17.998;2022-12-10T01:11:28;10.40;;;6.20;;
13485;SDS011;6815;59.336;17.998;2022-12-10T01:13:55;10.97;;;6.80;;
13485;SDS011;6815;59.336;17.998;2022-12-10T01:16:22;9.77;;;6.00;;
13485;SDS011;6815;59.336;17.998;2022-12-10T01:18:48;9.00;;;5.73;;
13485;SDS011;6815;59.336;17.998;2022-12-10T01:21:15;10.97;;;6.33;;
13485;SDS011;6815;59.336;17.998;2022-12-10T01:23:43;9.93;;;5.83;;
13485;SDS011;6815;59.336;17.998;2022-12-10T01:26:10;10.10;;;6.33;;
13485;SDS011;6815;59.336;17.998;2022-12-10T01:28:38;8.93;;;5.83;;
13485;SDS011;6815;59.336;17.998;2022-12-10T01:31:05;13.17;;;6.43;;
13485;SDS011;6815;59.336;17.998;2022-12-10T01:33:33;10.80;;;6.50;;
13485;SDS011;6815;59.336;17.998;2022-12-10T01:36:13;11.43;;;5.80;;
13485;SDS011;6815;59.336;17.998;2022-12-10T01:38:47;10.23;;;6.23;;
13485;SDS011;6815;59.336;17.998;2022-12-10T01:41:14;9.93;;;6.30;;
13485;SDS011;6815;59.336;17.998;2022-12-10T01:46:18;7.37;;;5.10;;
13485;SDS011;6815;59.336;17.998;2022-12-10T01:48:44;9.30;;;6.00;;
13485;SDS011;6815;59.336;17.998;2022-12-10T01:51:10;8.97;;;6.07;;
13485;SDS011;6815;59.336;17.998;2022-12-10T01:53:37;8.43;;;6.10;;
13485;SDS011;6815;59.336;17.998;2022-12-10T01:56:03;9.03;;;5.37;;
13485;SDS011;6815;59.336;17.998;2022-12-10T01:58:29;8.50;;;5.23;;
13485;SDS011;6815;59.336;17.998;2022-12-10T02:01:04;9.80;;;5.77;;
13485;SDS011;6815;59.336;17.998;2022-12-10T02:06:17;9.20;;;5.70;;
13485;SDS011;6815;59.336;17.998;2022-12-10T02:08:49;9.27;;;5.60;;
13485;SDS011;6815;59.336;17.998;2022-12-10T02:11:49;6.53;;;4.80;;
13485;SDS011;6815;59.336;17.998;2022-12-10T02:14:22;7.57;;;5.03;;
13485;SDS011;6815;59.336;17.998;2022-12-10T02:17:14;6.40;;;4.13;;
13485;SDS011;6815;59.336;17.998;2022-12-10T02:22:27;6.83;;;4.63;;
13485;SDS011;6815;59.336;17.998;2022-12-10T02:24:56;8.03;;;5.00;;
13485;SDS011;6815;59.336;17.998;2022-12-10T02:27:31;7.70;;;5.17;;
13485;SDS011;6815;59.336;17.998;2022-12-10T02:30:03;7.33;;;5.07;;
13485;SDS011;6815;59.336;17.998;2022-12-10T02:32:31;6.70;;;4.97;;
13485;SDS011;6815;59.336;17.998;2022-12-10T02:35:00;7.37;;;4.47;;
13485;SDS011;6815;59.336;17.998;2022-12-10T02:37:32;6.00;;;4.67;;
13485;SDS011;6815;59.336;17.998;2022-12-10T02:40:02;6.37;;;4.70;;
13485;SDS011;6815;59.336;17.998;2022-12-10T02:42:32;5.73;;;4.83;;
13485;SDS011;6815;59.336;17.998;2022-12-10T02:45:02;7.13;;;4.53;;
13485;SDS011;6815;59.336;17.998;2022-12-10T02:47:28;7.40;;;4.80;;
13485;SDS011;6815;59.336;17.998;2022-12-10T02:49:55;5.97;;;4.40;;
13485;SDS011;6815;59.336;17.998;2022-12-10T02:52:23;6.00;;;4.50;;
13485;SDS011;6815;59.336;17.998;2022-12-10T02:54:50;7.57;;;5.27;;
13485;SDS011;6815;59.336;17.998;2022-12-10T03:08:27;6.53;;;4.60;;
13485;SDS011;6815;59.336;17.998;2022-12-10T03:11:01;7.83;;;5.63;;
13485;SDS011;6815;59.336;17.998;2022-12-10T03:13:39;7.20;;;5.33;;
13485;SDS011;6815;59.336;17.998;2022-12-10T03:16:13;7.00;;;5.00;;
13485;SDS011;6815;59.336;17.998;2022-12-10T03:18:40;7.80;;;5.60;;
13485;SDS011;6815;59.336;17.998;2022-12-10T03:21:06;7.87;;;5.70;;
13485;SDS011;6815;59.336;17.998;2022-12-10T03:23:35;5.90;;;4.83;;
13485;SDS011;6815;59.336;17.998;2022-12-10T03:26:05;6.67;;;4.97;;
13485;SDS011;6815;59.336;17.998;2022-12-10T03:28:34;7.77;;;4.90;;
13485;SDS011;6815;59.336;17.998;2022-12-10T03:31:03;6.90;;;4.97;;
13485;SDS011;6815;59.336;17.998;2022-12-10T03:33:29;8.20;;;5.10;;
13485;SDS011;6815;59.336;17.998;2022-12-10T03:35:56;7.37;;;5.13;;
13485;SDS011;6815;59.336;17.998;2022-12-10T03:38:21;7.97;;;5.33;;
13485;SDS011;6815;59.336;17.998;2022-12-10T03:40:47;7.50;;;5.37;;
13485;SDS011;6815;59.336;17.998;2022-12-10T03:43:14;5.60;;;4.40;;
13485;SDS011;6815;59.336;17.998;2022-12-10T03:45:40;6.47;;;4.50;;
13485;SDS011;6815;59.336;17.998;2022-12-10T03:48:06;6.00;;;4.83;;
13485;SDS011;6815;59.336;17.998;2022-12-10T03:50:34;6.20;;;4.40;;
13485;SDS011;6815;59.336;17.998;2022-12-10T03:52:59;7.67;;;4.57;;
13485;SDS011;6815;59.336;17.998;2022-12-10T03:55:25;5.10;;;4.07;;
13485;SDS011;6815;59.336;17.998;2022-12-10T03:57:50;4.20;;;3.63;;
13485;SDS011;6815;59.336;17.998;2022-12-10T04:00:16;4.53;;;3.53;;
13485;SDS011;6815;59.336;17.998;2022-12-10T04:02:41;4.33;;;3.70;;
13485;SDS011;6815;59.336;17.998;2022-12-10T04:05:08;5.77;;;4.20;;
13485;SDS011;6815;59.336;17.998;2022-12-10T04:07:34;4.23;;;3.80;;
13485;SDS011;6815;59.336;17.998;2022-12-10T04:09:59;4.40;;;3.30;;
13485;SDS011;6815;59.336;17.998;2022-12-10T04:12:25;3.63;;;3.13;;
13485;SDS011;6815;59.336;17.998;2022-12-10T04:14:50;4.00;;;3.20;;
13485;SDS011;6815;59.336;17.998;2022-12-10T04:17:34;5.10;;;3.30;;
13485;SDS011;6815;59.336;17.998;2022-12-10T04:20:00;4.43;;;3.53;;
13485;SDS011;6815;59.336;17.998;2022-12-10T04:22:25;5.10;;;3.90;;
13485;SDS011;6815;59.336;17.998;2022-12-10T04:25:12;3.87;;;3.37;;
13485;SDS011;6815;59.336;17.998;2022-12-10T04:27:56;3.60;;;3.30;;
13485;SDS011;6815;59.336;17.998;2022-12-10T04:30:22;4.57;;;3.90;;
13485;SDS011;6815;59.336;17.998;2022-12-10T04:32:48;5.87;;;4.27;;
13485;SDS011;6815;59.336;17.998;2022-12-10T04:35:14;4.37;;;3.83;;
13485;SDS011;6815;59.336;17.998;2022-12-10T04:37:39;4.57;;;3.90;;
13485;SDS011;6815;59.336;17.998;2022-12-10T04:40:05;5.90;;;3.73;;
13485;SDS011;6815;59.336;17.998;2022-12-10T04:42:31;5.17;;;3.87;;
13485;SDS011;6815;59.336;17.998;2022-12-10T04:44:56;5.10;;;3.80;;
13485;SDS011;6815;59.336;17.998;2022-12-10T04:47:22;4.20;;;3.47;;
13485;SDS011;6815;59.336;17.998;2022-12-10T04:49:48;4.53;;;3.73;;
13485;SDS011;6815;59.336;17.998;2022-12-10T04:52:14;4.47;;;3.70;;
13485;SDS011;6815;59.336;17.998;2022-12-10T04:54:40;3.70;;;3.10;;
13485;SDS011;6815;59.336;17.998;2022-12-10T04:57:06;3.17;;;2.67;;
13485;SDS011;6815;59.336;17.998;2022-12-10T04:59:32;3.60;;;2.60;;
13485;SDS011;6815;59.336;17.998;2022-12-10T05:01:58;3.50;;;2.80;;
13485;SDS011;6815;59.336;17.998;2022-12-10T05:04:23;3.90;;;3.37;;
13485;SDS011;6815;59.336;17.998;2022-12-10T05:06:49;4.27;;;3.60;;
13485;SDS011;6815;59.336;17.998;2022-12-10T05:09:16;5.13;;;4.03;;
13485;SDS011;6815;59.336;17.998;2022-12-10T05:11:42;4.43;;;3.53;;
13485;SDS011;6815;59.336;17.998;2022-12-10T05:14:13;3.50;;;3.20;;
13485;SDS011;6815;59.336;17.998;2022-12-10T05:16:39;4.00;;;3.60;;
13485;SDS011;6815;59.336;17.998;2022-12-10T05:19:04;4.40;;;3.67;;
13485;SDS011;6815;59.336;17.998;2022-12-10T05:21:30;3.90;;;3.50;;
13485;SDS011;6815;59.336;17.998;2022-12-10T05:24:14;3.43;;;3.13;;
13485;SDS011;6815;59.336;17.998;2022-12-10T05:26:41;4.87;;;3.90;;
13485;SDS011;6815;59.336;17.998;2022-12-10T05:29:06;3.03;;;2.73;;
13485;SDS011;6815;59.336;17.998;2022-12-10T05:31:32;4.07;;;3.43;;
13485;SDS011;6815;59.336;17.998;2022-12-10T05:33:57;4.73;;;3.60;;
13485;SDS011;6815;59.336;17.998;2022-12-10T05:36:24;4.20;;;3.23;;
13485;SDS011;6815;59.336;17.998;2022-12-10T05:38:52;4.57;;;3.60;;
13485;SDS011;6815;59.336;17.998;2022-12-10T05:41:22;4.07;;;3.17;;
13485;SDS011;6815;59.336;17.998;2022-12-10T05:43:49;4.07;;;3.67;;
13485;SDS011;6815;59.336;17.998;2022-12-10T05:46:16;4.43;;;3.63;;
13485;SDS011;6815;59.336;17.998;2022-12-10T05:48:47;4.00;;;3.60;;
13485;SDS011;6815;59.336;17.998;2022-12-10T05:51:14;4.17;;;3.23;;
13485;SDS011;6815;59.336;17.998;2022-12-10T05:53:42;5.23;;;3.80;;
13485;SDS011;6815;59.336;17.998;2022-12-10T05:56:09;4.10;;;3.17;;
13485;SDS011;6815;59.336;17.998;2022-12-10T05:58:37;3.60;;;3.10;;
13485;SDS011;6815;59.336;17.998;2022-12-10T06:01:15;4.23;;;3.37;;
13485;SDS011;6815;59.336;17.998;2022-12-10T06:03:45;4.43;;;3.57;;
13485;SDS011;6815;59.336;17.998;2022-12-10T06:06:12;4.40;;;3.43;;
13485;SDS011;6815;59.336;17.998;2022-12-10T06:08:39;4.93;;;3.87;;
13485;SDS011;6815;59.336;17.998;2022-12-10T06:11:08;3.80;;;3.07;;
13485;SDS011;6815;59.336;17.998;2022-12-10T06:13:35;4.73;;;3.53;;
13485;SDS011;6815;59.336;17.998;2022-12-10T06:16:07;5.13;;;3.57;;
13485;SDS011;6815;59.336;17.998;2022-12-10T06:18:34;5.17;;;3.70;;
13485;SDS011;6815;59.336;17.998;2022-12-10T06:21:05;3.67;;;3.33;;
13485;SDS011;6815;59.336;17.998;2022-12-10T06:23:33;4.37;;;3.33;;
13485;SDS011;6815;59.336;17.998;2022-12-10T06:26:02;5.10;;;3.43;;
13485;SDS011;6815;59.336;17.998;2022-12-10T06:28:39;5.63;;;3.80;;
13485;SDS011;6815;59.336;17.998;2022-12-10T06:31:05;4.53;;;3.43;;
13485;SDS011;6815;59.336;17.998;2022-12-10T06:33:31;4.20;;;3.80;;
13485;SDS011;6815;59.336;17.998;2022-12-10T06:35:56;6.03;;;3.70;;
13485;SDS011;6815;59.336;17.998;2022-12-10T06:38:22;4.90;;;3.77;;
13485;SDS011;6815;59.336;17.998;2022-12-10T06:40:48;4.97;;;3.83;;
13485;SDS011;6815;59.336;17.998;2022-12-10T06:43:13;4.13;;;3.37;;
13485;SDS011;6815;59.336;17.998;2022-12-10T06:45:40;4.30;;;3.60;;
13485;SDS011;6815;59.336;17.998;2022-12-10T06:48:06;4.73;;;3.50;;
13485;SDS011;6815;59.336;17.998;2022-12-10T06:50:32;4.03;;;3.20;;
13485;SDS011;6815;59.336;17.998;2022-12-10T06:52:57;3.50;;;2.90;;
13485;SDS011;6815;59.336;17.998;2022-12-10T06:55:23;3.67;;;3.13;;
13485;SDS011;6815;59.336;17.998;2022-12-10T06:57:52;4.17;;;3.03;;
13485;SDS011;6815;59.336;17.998;2022-12-10T07:00:18;4.33;;;3.63;;
13485;SDS011;6815;59.336;17.998;2022-12-10T07:02:44;5.40;;;3.43;;
13485;SDS011;6815;59.336;17.998;2022-12-10T07:05:09;4.67;;;3.90;;
13485;SDS011;6815;59.336;17.998;2022-12-10T07:07:35;4.23;;;3.73;;
13485;SDS011;6815;59.336;17.998;2022-12-10T07:10:01;4.80;;;3.80;;
13485;SDS011;6815;59.336;17.998;2022-12-10T07:12:26;4.93;;;3.60;;
13485;SDS011;6815;59.336;17.998;2022-12-10T07:14:52;4.17;;;3.60;;
13485;SDS011;6815;59.336;17.998;2022-12-10T07:17:17;5.43;;;4.07;;
13485;SDS011;6815;59.336;17.998;2022-12-10T07:19:43;5.10;;;3.77;;
13485;SDS011;6815;59.336;17.998;2022-12-10T07:22:09;7.13;;;4.00;;
13485;SDS011;6815;59.336;17.998;2022-12-10T07:24:35;5.77;;;3.83;;
13485;SDS011;6815;59.336;17.998;2022-12-10T07:27:00;4.93;;;3.93;;
13485;SDS011;6815;59.336;17.998;2022-12-10T07:29:26;5.37;;;3.80;;
13485;SDS011;6815;59.336;17.998;2022-12-10T07:31:51;4.03;;;3.07;;
13485;SDS011;6815;59.336;17.998;2022-12-10T07:34:17;4.63;;;3.53;;
13485;SDS011;6815;59.336;17.998;2022-12-10T07:36:43;4.27;;;3.53;;
13485;SDS011;6815;59.336;17.998;2022-12-10T07:39:09;3.77;;;3.07;;
13485;SDS011;6815;59.336;17.998;2022-12-10T07:41:35;4.77;;;3.53;;
13485;SDS011;6815;59.336;17.998;2022-12-10T07:44:02;4.10;;;3.10;;
13485;SDS011;6815;59.336;17.998;2022-12-10T07:46:31;4.70;;;3.33;;
13485;SDS011;6815;59.336;17.998;2022-12-10T07:48:59;4.37;;;3.50;;
13485;SDS011;6815;59.336;17.998;2022-12-10T07:51:26;4.27;;;3.30;;
13485;SDS011;6815;59.336;17.998;2022-12-10T07:53:52;3.73;;;2.90;;
13485;SDS011;6815;59.336;17.998;2022-12-10T07:56:18;4.90;;;3.57;;
13485;SDS011;6815;59.336;17.998;2022-12-10T07:58:44;3.93;;;3.27;;
13485;SDS011;6815;59.336;17.998;2022-12-10T08:01:14;4.07;;;3.37;;
13485;SDS011;6815;59.336;17.998;2022-12-10T08:03:41;5.27;;;3.87;;
13485;SDS011;6815;59.336;17.998;2022-12-10T08:06:09;5.63;;;4.10;;
13485;SDS011;6815;59.336;17.998;2022-12-10T08:08:36;5.07;;;3.40;;
13485;SDS011;6815;59.336;17.998;2022-12-10T08:11:03;5.17;;;3.77;;
13485;SDS011;6815;59.336;17.998;2022-12-10T08:13:29;5.63;;;3.77;;
13485;SDS011;6815;59.336;17.998;2022-12-10T08:16:05;5.13;;;4.00;;
13485;SDS011;6815;59.336;17.998;2022-12-10T08:18:32;5.37;;;3.80;;
13485;SDS011;6815;59.336;17.998;2022-12-10T08:21:02;5.20;;;3.63;;
13485;SDS011;6815;59.336;17.998;2022-12-10T08:23:29;4.20;;;3.57;;
13485;SDS011;6815;59.336;17.998;2022-12-10T08:25:55;6.23;;;4.10;;
13485;SDS011;6815;59.336;17.998;2022-12-10T08:28:20;4.10;;;3.50;;
13485;SDS011;6815;59.336;17.998;2022-12-10T08:30:46;5.63;;;4.10;;
13485;SDS011;6815;59.336;17.998;2022-12-10T08:33:12;4.43;;;3.80;;
13485;SDS011;6815;59.336;17.998;2022-12-10T08:35:38;6.77;;;3.87;;
13485;SDS011;6815;59.336;17.998;2022-12-10T08:38:03;5.60;;;3.80;;
13485;SDS011;6815;59.336;17.998;2022-12-10T08:40:29;6.03;;;3.70;;
13485;SDS011;6815;59.336;17.998;2022-12-10T08:42:54;4.47;;;3.53;;
13485;SDS011;6815;59.336;17.998;2022-12-10T08:45:20;4.10;;;3.67;;
13485;SDS011;6815;59.336;17.998;2022-12-10T08:47:45;4.77;;;4.17;;
13485;SDS011;6815;59.336;17.998;2022-12-10T08:50:11;5.20;;;3.77;;
13485;SDS011;6815;59.336;17.998;2022-12-10T08:52:36;4.83;;;3.83;;
13485;SDS011;6815;59.336;17.998;2022-12-10T08:55:02;5.30;;;3.93;;
13485;SDS011;6815;59.336;17.998;2022-12-10T08:57:28;5.67;;;4.00;;
13485;SDS011;6815;59.336;17.998;2022-12-10T08:59:53;6.00;;;4.70;;
13485;SDS011;6815;59.336;17.998;2022-12-10T09:02:19;5.40;;;3.93;;
13485;SDS011;6815;59.336;17.998;2022-12-10T09:04:45;5.13;;;3.90;;
13485;SDS011;6815;59.336;17.998;2022-12-10T09:07:11;4.60;;;3.60;;
13485;SDS011;6815;59.336;17.998;2022-12-10T09:09:37;5.60;;;3.70;;
13485;SDS011;6815;59.336;17.998;2022-12-10T09:12:02;5.50;;;3.73;;
13485;SDS011;6815;59.336;17.998;2022-12-10T09:14:28;5.27;;;3.77;;
13485;SDS011;6815;59.336;17.998;2022-12-10T09:16:54;5.27;;;4.03;;
13485;SDS011;6815;59.336;17.998;2022-12-10T09:19:19;5.83;;;3.97;;
13485;SDS011;6815;59.336;17.998;2022-12-10T09:21:45;4.50;;;3.90;;
13485;SDS011;6815;59.336;17.998;2022-12-10T09:24:11;6.63;;;4.20;;
13485;SDS011;6815;59.336;17.998;2022-12-10T09:26:37;5.40;;;4.17;;
13485;SDS011;6815;59.336;17.998;2022-12-10T09:29:02;5.67;;;4.27;;
13485;SDS011;6815;59.336;17.998;2022-12-10T09:31:27;4.97;;;3.90;;
13485;SDS011;6815;59.336;17.998;2022-12-10T09:33:53;5.50;;;3.73;;
13485;SDS011;6815;59.336;17.998;2022-12-10T09:36:19;5.07;;;4.03;;
13485;SDS011;6815;59.336;17.998;2022-12-10T09:38:46;4.97;;;4.07;;
13485;SDS011;6815;59.336;17.998;2022-12-10T09:43:58;6.40;;;4.20;;
13485;SDS011;6815;59.336;17.998;2022-12-10T09:46:48;5.87;;;4.27;;
13485;SDS011;6815;59.336;17.998;2022-12-10T09:49:21;5.50;;;4.20;;
13485;SDS011;6815;59.336;17.998;2022-12-10T09:51:55;5.93;;;4.20;;
13485;SDS011;6815;59.336;17.998;2022-12-10T09:54:26;6.20;;;4.23;;
13485;SDS011;6815;59.336;17.998;2022-12-10T09:56:55;7.10;;;4.37;;
13485;SDS011;6815;59.336;17.998;2022-12-10T09:59:24;6.47;;;4.13;;
13485;SDS011;6815;59.336;17.998;2022-12-10T10:04:46;6.57;;;4.43;;
13485;SDS011;6815;59.336;17.998;2022-12-10T10:07:31;5.80;;;4.10;;
13485;SDS011;6815;59.336;17.998;2022-12-10T10:09:59;5.43;;;4.53;;
13485;SDS011;6815;59.336;17.998;2022-12-10T10:12:28;5.93;;;4.33;;
13485;SDS011;6815;59.336;17.998;2022-12-10T10:14:56;5.47;;;4.30;;
13485;SDS011;6815;59.336;17.998;2022-12-10T10:17:33;6.37;;;4.60;;
13485;SDS011;6815;59.336;17.998;2022-12-10T10:20:01;6.40;;;4.73;;
13485;SDS011;6815;59.336;17.998;2022-12-10T10:22:26;5.27;;;4.20;;
13485;SDS011;6815;59.336;17.998;2022-12-10T10:24:52;6.67;;;4.23;;
13485;SDS011;6815;59.336;17.998;2022-12-10T10:27:25;5.97;;;4.10;;
13485;SDS011;6815;59.336;17.998;2022-12-10T10:29:54;4.70;;;4.20;;
13485;SDS011;6815;59.336;17.998;2022-12-10T10:32:26;7.50;;;5.03;;
13485;SDS011;6815;59.336;17.998;2022-12-10T10:35:19;6.57;;;4.50;;
13485;SDS011;6815;59.336;17.998;2022-12-10T10:37:47;5.40;;;4.30;;
13485;SDS011;6815;59.336;17.998;2022-12-10T10:40:26;6.87;;;4.80;;
13485;SDS011;6815;59.336;17.998;2022-12-10T10:42:54;5.17;;;4.07;;
13485;SDS011;6815;59.336;17.998;2022-12-10T10:45:40;6.93;;;4.60;;
13485;SDS011;6815;59.336;17.998;2022-12-10T10:48:18;6.67;;;4.77;;
13485;SDS011;6815;59.336;17.998;2022-12-10T10:50:47;7.47;;;4.73;;
13485;SDS011;6815;59.336;17.998;2022-12-10T10:53:27;5.40;;;4.67;;
13485;SDS011;6815;59.336;17.998;2022-12-10T10:55:54;5.70;;;4.20;;
13485;SDS011;6815;59.336;17.998;2022-12-10T10:58:22;5.50;;;4.40;;
13485;SDS011;6815;59.336;17.998;2022-12-10T11:01:00;5.30;;;4.37;;
13485;SDS011;6815;59.336;17.998;2022-12-10T11:03:28;5.93;;;4.50;;
13485;SDS011;6815;59.336;17.998;2022-12-10T11:05:56;5.20;;;3.97;;
13485;SDS011;6815;59.336;17.998;2022-12-10T11:08:23;6.77;;;4.83;;
13485;SDS011;6815;59.336;17.998;2022-12-10T11:10:52;5.13;;;3.90;;
13485;SDS011;6815;59.336;17.998;2022-12-10T11:13:26;5.47;;;4.30;;
13485;SDS011;6815;59.336;17.998;2022-12-10T11:15:55;5.90;;;4.23;;
13485;SDS011;6815;59.336;17.998;2022-12-10T11:18:32;6.57;;;4.07;;
13485;SDS011;6815;59.336;17.998;2022-12-10T11:21:18;4.93;;;4.27;;
13485;SDS011;6815;59.336;17.998;2022-12-10T11:23:47;9.30;;;4.23;;
13485;SDS011;6815;59.336;17.998;2022-12-10T11:37:37;5.00;;;4.10;;
13485;SDS011;6815;59.336;17.998;2022-12-10T11:51:05;5.43;;;4.00;;
13485;SDS011;6815;59.336;17.998;2022-12-10T12:15:18;4.23;;;3.37;;
13485;SDS011;6815;59.336;17.998;2022-12-10T12:17:52;5.83;;;4.03;;
13485;SDS011;6815;59.336;17.998;2022-12-10T12:20:34;7.03;;;4.00;;
13485;SDS011;6815;59.336;17.998;2022-12-10T12:23:10;5.00;;;3.70;;
13485;SDS011;6815;59.336;17.998;2022-12-10T12:25:39;4.17;;;3.47;;
13485;SDS011;6815;59.336;17.998;2022-12-10T12:28:19;4.27;;;3.20;;
13485;SDS011;6815;59.336;17.998;2022-12-10T12:31:04;8.33;;;4.10;;
13485;SDS011;6815;59.336;17.998;2022-12-10T12:33:38;6.40;;;3.73;;
13485;SDS011;6815;59.336;17.998;2022-12-10T12:36:18;5.57;;;3.80;;
13485;SDS011;6815;59.336;17.998;2022-12-10T12:39:09;5.50;;;3.77;;
13485;SDS011;6815;59.336;17.998;2022-12-10T12:42:01;6.07;;;3.87;;
13485;SDS011;6815;59.336;17.998;2022-12-10T12:47:30;5.17;;;3.70;;
13485;SDS011;6815;59.336;17.998;2022-12-10T12:50:04;6.27;;;3.93;;
13485;SDS011;6815;59.336;17.998;2022-12-10T12:52:43;5.00;;;3.73;;
13485;SDS011;6815;59.336;17.998;2022-12-10T12:55:18;5.23;;;3.60;;
13485;SDS011;6815;59.336;17.998;2022-12-10T12:57:49;4.40;;;3.57;;
13485;SDS011;6815;59.336;17.998;2022-12-10T13:00:21;5.00;;;3.70;;
13485;SDS011;6815;59.336;17.998;2022-12-10T13:02:53;6.00;;;3.83;;
13485;SDS011;6815;59.336;17.998;2022-12-10T13:05:32;6.27;;;3.73;;
13485;SDS011;6815;59.336;17.998;2022-12-10T13:15:52;5.20;;;3.33;;
13485;SDS011;6815;59.336;17.998;2022-12-10T13:18:20;4.80;;;3.60;;
13485;SDS011;6815;59.336;17.998;2022-12-10T13:20:49;5.43;;;3.70;;
13485;SDS011;6815;59.336;17.998;2022-12-10T13:23:47;4.43;;;3.57;;
13485;SDS011;6815;59.336;17.998;2022-12-10T13:26:26;4.50;;;3.73;;
13485;SDS011;6815;59.336;17.998;2022-12-10T13:28:54;5.57;;;3.40;;
13485;SDS011;6815;59.336;17.998;2022-12-10T13:31:22;6.17;;;4.03;;
13485;SDS011;6815;59.336;17.998;2022-12-10T13:36:37;5.33;;;3.67;;
13485;SDS011;6815;59.336;17.998;2022-12-10T13:39:32;5.93;;;3.90;;
13485;SDS011;6815;59.336;17.998;2022-12-10T13:47:40;5.00;;;4.10;;
13485;SDS011;6815;59.336;17.998;2022-12-10T13:50:16;5.87;;;3.90;;
13485;SDS011;6815;59.336;17.998;2022-12-10T14:00:39;5.10;;;3.33;;
13485;SDS011;6815;59.336;17.998;2022-12-10T14:06:20;5.47;;;3.73;;
13485;SDS011;6815;59.336;17.998;2022-12-10T14:08:53;5.50;;;3.50;;
13485;SDS011;6815;59.336;17.998;2022-12-10T14:11:22;4.43;;;3.37;;
13485;SDS011;6815;59.336;17.998;2022-12-10T14:13:53;5.17;;;3.87;;
13485;SDS011;6815;59.336;17.998;2022-12-10T14:16:23;7.70;;;3.83;;
13485;SDS011;6815;59.336;17.998;2022-12-10T14:18:53;5.10;;;3.40;;
13485;SDS011;6815;59.336;17.998;2022-12-10T14:21:24;3.97;;;3.50;;
13485;SDS011;6815;59.336;17.998;2022-12-10T14:23:50;4.30;;;3.50;;
13485;SDS011;6815;59.336;17.998;2022-12-10T14:26:19;4.67;;;3.47;;
13485;SDS011;6815;59.336;17.998;2022-12-10T14:28:47;5.63;;;3.50;;
13485;SDS011;6815;59.336;17.998;2022-12-10T14:31:19;5.97;;;3.30;;
13485;SDS011;6815;59.336;17.998;2022-12-10T14:33:47;4.93;;;3.50;;
13485;SDS011;6815;59.336;17.998;2022-12-10T14:36:21;4.60;;;3.60;;
13485;SDS011;6815;59.336;17.998;2022-12-10T14:38:52;3.90;;;3.27;;
13485;SDS011;6815;59.336;17.998;2022-12-10T14:41:19;5.37;;;3.27;;
13485;SDS011;6815;59.336;17.998;2022-12-10T14:43:46;5.13;;;3.60;;
13485;SDS011;6815;59.336;17.998;2022-12-10T14:46:18;4.97;;;3.23;;
13485;SDS011;6815;59.336;17.998;2022-12-10T14:48:48;4.87;;;3.27;;
13485;SDS011;6815;59.336;17.998;2022-12-10T14:51:16;5.57;;;3.50;;
13485;SDS011;6815;59.336;17.998;2022-12-10T14:53:48;4.50;;;3.60;;
13485;SDS011;6815;59.336;17.998;2022-12-10T14:56:36;5.03;;;3.50;;
13485;SDS011;6815;59.336;17.998;2022-12-10T14:59:08;3.20;;;2.73;;
13485;SDS011;6815;59.336;17.998;2022-12-10T15:01:41;4.33;;;2.83;;
13485;SDS011;6815;59.336;17.998;2022-12-10T15:04:14;4.37;;;3.07;;
13485;SDS011;6815;59.336;17.998;2022-12-10T15:06:42;3.73;;;3.00;;
13485;SDS011;6815;59.336;17.998;2022-12-10T15:09:19;5.53;;;3.50;;
13485;SDS011;6815;59.336;17.998;2022-12-10T15:11:57;4.57;;;3.53;;
13485;SDS011;6815;59.336;17.998;2022-12-10T15:14:24;5.03;;;3.27;;
13485;SDS011;6815;59.336;17.998;2022-12-10T15:16:52;4.33;;;3.20;;
13485;SDS011;6815;59.336;17.998;2022-12-10T15:21:56;51.40;;;29.57;;
13485;SDS011;6815;59.336;17.998;2022-12-10T15:24:26;83.47;;;50.27;;
13485;SDS011;6815;59.336;17.998;2022-12-10T15:27:00;135.53;;;84.87;;
13485;SDS011;6815;59.336;17.998;2022-12-10T15:32:11;32.03;;;19.17;;
13485;SDS011;6815;59.336;17.998;2022-12-10T15:34:49;6.53;;;4.67;;
13485;SDS011;6815;59.336;17.998;2022-12-10T15:37:21;5.60;;;3.30;;
13485;SDS011;6815;59.336;17.998;2022-12-10T15:39:59;4.10;;;2.90;;
13485;SDS011;6815;59.336;17.998;2022-12-10T15:42:28;4.17;;;2.83;;
13485;SDS011;6815;59.336;17.998;2022-12-10T15:44:56;4.37;;;3.10;;
13485;SDS011;6815;59.336;17.998;2022-12-10T15:47:26;5.33;;;2.83;;
13485;SDS011;6815;59.336;17.998;2022-12-10T15:49:55;6.63;;;3.27;;
13485;SDS011;6815;59.336;17.998;2022-12-10T15:52:22;5.40;;;3.10;;
13485;SDS011;6815;59.336;17.998;2022-12-10T15:54:50;4.77;;;3.20;;
13485;SDS011;6815;59.336;17.998;2022-12-10T15:59:51;5.83;;;3.00;;
13485;SDS011;6815;59.336;17.998;2022-12-10T16:04:53;3.23;;;2.73;;
13485;SDS011;6815;59.336;17.998;2022-12-10T16:07:19;4.43;;;2.90;;
13485;SDS011;6815;59.336;17.998;2022-12-10T16:09:45;5.13;;;3.00;;
13485;SDS011;6815;59.336;17.998;2022-12-10T16:12:11;3.97;;;3.07;;
13485;SDS011;6815;59.336;17.998;2022-12-10T16:14:42;4.73;;;3.20;;
13485;SDS011;6815;59.336;17.998;2022-12-10T16:17:14;5.30;;;3.30;;
13485;SDS011;6815;59.336;17.998;2022-12-10T16:19:40;5.70;;;3.07;;
13485;SDS011;6815;59.336;17.998;2022-12-10T16:22:05;4.57;;;3.17;;
13485;SDS011;6815;59.336;17.998;2022-12-10T16:24:31;4.23;;;3.13;;
13485;SDS011;6815;59.336;17.998;2022-12-10T16:26:56;4.20;;;3.13;;
13485;SDS011;6815;59.336;17.998;2022-12-10T16:29:22;4.10;;;2.97;;
13485;SDS011;6815;59.336;17.998;2022-12-10T16:31:48;6.00;;;3.30;;
13485;SDS011;6815;59.336;17.998;2022-12-10T16:34:14;4.00;;;3.03;;
13485;SDS011;6815;59.336;17.998;2022-12-10T16:36:39;4.63;;;3.13;;
13485;SDS011;6815;59.336;17.998;2022-12-10T16:39:04;5.87;;;3.53;;
13485;SDS011;6815;59.336;17.998;2022-12-10T16:41:30;7.00;;;6.30;;
13485;SDS011;6815;59.336;17.998;2022-12-10T16:43:56;6.53;;;4.70;;
13485;SDS011;6815;59.336;17.998;2022-12-10T16:46:22;4.97;;;3.67;;
13485;SDS011;6815;59.336;17.998;2022-12-10T16:48:47;5.43;;;3.00;;
13485;SDS011;6815;59.336;17.998;2022-12-10T16:51:14;4.23;;;3.27;;